createdAt,value
2023-11-19T00:01:09.333Z,98220.27
2023-11-19T00:03:58.219Z,98220.84
2023-11-19T00:06:26.403Z,98219.30
2023-11-19T00:08:54.354Z,98222.52
2023-11-19T00:11:22.596Z,98220.78
2023-11-19T00:13:50.525Z,98224.88
2023-11-19T00:16:20.614Z,98224.19
2023-11-19T00:18:48.855Z,98219.59
2023-11-19T00:21:16.949Z,98216.23
2023-11-19T00:23:45.075Z,98213.65
2023-11-19T00:26:13.011Z,98209.08
2023-11-19T00:28:42.318Z,98204.84
2023-11-19T00:31:10.546Z,98199.64
2023-11-19T00:36:17.367Z,98188.19
2023-11-19T00:38:45.805Z,98182.02
2023-11-19T00:41:13.730Z,98184.05
2023-11-19T00:43:41.869Z,98190.69
2023-11-19T00:46:09.907Z,98191.70
2023-11-19T00:48:38.164Z,98192.72
2023-11-19T00:51:06.276Z,98189.45
2023-11-19T00:53:34.883Z,98183.64
2023-11-19T00:56:02.843Z,98178.50
2023-11-19T00:58:30.884Z,98179.86
2023-11-19T01:00:59.304Z,98177.83
2023-11-19T01:03:27.323Z,98169.66
2023-11-19T01:05:55.339Z,98168.48
2023-11-19T01:08:23.264Z,98176.02
2023-11-19T01:10:51.333Z,98183.48
2023-11-19T01:13:22.528Z,98182.21
2023-11-19T01:15:50.928Z,98181.38
2023-11-19T01:18:19.557Z,98176.93
2023-11-19T01:20:48.230Z,98177.08
2023-11-19T01:23:16.155Z,98175.20
2023-11-19T01:25:44.870Z,98171.63
2023-11-19T01:28:13.293Z,98167.73
2023-11-19T01:30:41.287Z,98165.02
2023-11-19T01:33:09.274Z,98161.29
2023-11-19T01:35:37.470Z,98154.67
2023-11-19T01:38:05.352Z,98151.59
2023-11-19T01:40:36.737Z,98146.11
2023-11-19T01:43:04.907Z,98137.94
2023-11-19T01:45:32.984Z,98131.80
2023-11-19T01:48:03.334Z,98131.82
2023-11-19T01:50:33.035Z,98135.05
2023-11-19T01:53:01.236Z,98135.09
2023-11-19T01:55:29.571Z,98135.08
2023-11-19T01:58:00.884Z,98130.84
2023-11-19T02:00:28.889Z,98125.59
2023-11-19T02:02:57.505Z,98122.52
2023-11-19T02:05:26.172Z,98120.30
2023-11-19T02:07:54.937Z,98108.91
2023-11-19T02:10:22.880Z,98101.73
2023-11-19T02:12:50.883Z,98096.98
2023-11-19T02:15:19.108Z,98088.80
2023-11-19T02:17:47.061Z,98075.02
2023-11-19T02:20:15.064Z,98063.47
2023-11-19T02:22:43.093Z,98055.45
2023-11-19T02:25:40.469Z,98047.60
2023-11-19T02:28:08.595Z,98047.60
2023-11-19T02:30:36.567Z,98045.91
2023-11-19T02:33:04.535Z,98042.19
2023-11-19T02:35:33.140Z,98033.52
2023-11-19T02:38:01.187Z,98028.91
2023-11-19T02:40:29.192Z,98035.55
2023-11-19T02:42:57.336Z,98027.41
2023-11-19T02:45:26.772Z,98012.10
2023-11-19T02:47:55.111Z,98004.23
2023-11-19T02:50:24.056Z,97992.98
2023-11-19T02:52:55.620Z,97988.73
2023-11-19T02:55:24.195Z,97981.06
2023-11-19T02:57:53.069Z,97970.85
2023-11-19T03:00:22.253Z,97961.50
2023-11-19T03:05:35.714Z,97964.08
2023-11-19T03:08:03.770Z,97956.35
2023-11-19T03:10:31.762Z,97952.25
2023-11-19T03:12:59.802Z,97952.44
2023-11-19T03:15:27.803Z,97951.27
2023-11-19T03:17:55.760Z,97955.50
2023-11-19T03:20:23.743Z,97959.75
2023-11-19T03:22:51.880Z,97949.39
2023-11-19T03:25:19.928Z,97943.31
2023-11-19T03:27:49.211Z,97942.47
2023-11-19T03:30:17.377Z,97942.64
2023-11-19T03:32:45.289Z,97946.21
2023-11-19T03:35:13.242Z,97944.85
2023-11-19T03:37:41.296Z,97933.09
2023-11-19T03:40:09.484Z,97926.98
2023-11-19T03:42:37.384Z,97924.96
2023-11-19T03:45:05.639Z,97921.61
2023-11-19T03:47:33.605Z,97915.36
2023-11-19T03:50:01.714Z,97909.46
2023-11-19T03:52:30.128Z,97898.10
2023-11-19T03:54:58.182Z,97889.61
2023-11-19T03:57:26.307Z,97887.77
2023-11-19T03:59:54.453Z,97895.59
2023-11-19T04:02:22.648Z,97892.02
2023-11-19T04:04:50.741Z,97888.64
2023-11-19T04:07:18.679Z,97879.64
2023-11-19T04:09:46.578Z,97868.59
2023-11-19T04:12:14.672Z,97861.48
2023-11-19T04:14:42.654Z,97851.14
2023-11-19T04:17:10.728Z,97853.36
2023-11-19T04:19:38.789Z,97852.02
2023-11-19T04:22:06.778Z,97844.05
2023-11-19T04:24:34.708Z,97849.37
2023-11-19T04:27:02.883Z,97853.69
2023-11-19T04:29:31.250Z,97853.73
2023-11-19T04:31:59.299Z,97839.70
2023-11-19T04:34:27.469Z,97824.78
2023-11-19T04:36:55.551Z,97819.91
2023-11-19T04:39:23.469Z,97825.73
2023-11-19T04:41:51.935Z,97825.92
2023-11-19T04:44:20.300Z,97820.38
2023-11-19T04:46:48.308Z,97812.66
2023-11-19T04:49:16.355Z,97809.41
2023-11-19T04:51:53.039Z,97814.19
2023-11-19T04:54:21.139Z,97820.66
2023-11-19T04:56:49.075Z,97814.60
2023-11-19T04:59:17.027Z,97814.45
2023-11-19T05:01:47.816Z,97817.67
2023-11-19T05:04:15.853Z,97817.31
2023-11-19T05:06:43.764Z,97814.23
2023-11-19T05:09:11.943Z,97811.64
2023-11-19T05:11:51.500Z,97809.05
2023-11-19T05:14:20.795Z,97806.78
2023-11-19T05:16:48.937Z,97808.75
2023-11-19T05:19:16.981Z,97810.19
2023-11-19T05:21:45.245Z,97812.46
2023-11-19T05:24:13.393Z,97810.28
2023-11-19T05:26:41.411Z,97802.83
2023-11-19T05:29:09.429Z,97796.91
2023-11-19T05:31:38.680Z,97787.73
2023-11-19T05:34:07.653Z,97780.90
2023-11-19T05:36:35.605Z,97771.04
2023-11-19T05:39:03.640Z,97756.09
2023-11-19T05:41:31.592Z,97749.11
2023-11-19T05:43:59.540Z,97742.80
2023-11-19T05:46:27.583Z,97739.38
2023-11-19T05:48:55.574Z,97739.20
2023-11-19T05:51:23.582Z,97733.28
2023-11-19T05:53:51.532Z,97727.05
2023-11-19T05:56:19.623Z,97735.11
2023-11-19T05:58:47.795Z,97738.42
2023-11-19T06:01:16.114Z,97746.95
2023-11-19T06:03:44.272Z,97748.70
2023-11-19T06:06:12.260Z,97744.14
2023-11-19T06:08:40.164Z,97739.05
2023-11-19T06:11:08.161Z,97739.89
2023-11-19T06:13:36.342Z,97739.85
2023-11-19T06:16:04.570Z,97744.42
2023-11-19T06:18:32.578Z,97743.52
2023-11-19T06:21:00.758Z,97746.81
2023-11-19T06:23:28.806Z,97750.79
2023-11-19T06:25:56.724Z,97748.29
2023-11-19T06:28:24.672Z,97738.46
2023-11-19T06:30:52.734Z,97739.21
2023-11-19T06:33:20.821Z,97737.73
2023-11-19T06:35:49.009Z,97730.48
2023-11-19T06:38:16.923Z,97722.70
2023-11-19T06:40:44.907Z,97723.60
2023-11-19T06:43:12.962Z,97723.98
2023-11-19T06:45:41.042Z,97730.80
2023-11-19T06:48:09.060Z,97726.38
2023-11-19T06:50:38.138Z,97714.63
2023-11-19T06:53:06.138Z,97708.66
2023-11-19T06:55:34.169Z,97698.16
2023-11-19T06:58:02.187Z,97690.43
2023-11-19T07:00:30.734Z,97691.98
2023-11-19T07:02:59.063Z,97691.35
2023-11-19T07:05:30.403Z,97686.29
2023-11-19T07:07:58.396Z,97682.58
2023-11-19T07:10:26.456Z,97682.98
2023-11-19T07:12:54.496Z,97684.61
2023-11-19T07:15:22.416Z,97673.98
2023-11-19T07:20:24.477Z,97679.36
2023-11-19T07:22:54.577Z,97682.30
2023-11-19T07:25:24.057Z,97680.67
2023-11-19T07:27:52.885Z,97680.92
2023-11-19T07:30:20.911Z,97674.63
2023-11-19T07:32:48.808Z,97673.86
2023-11-19T07:35:16.904Z,97667.17
2023-11-19T07:37:44.866Z,97655.07
2023-11-19T07:40:13.077Z,97652.04
2023-11-19T07:42:41.225Z,97652.38
2023-11-19T07:45:12.829Z,97648.98
2023-11-19T07:47:41.145Z,97648.83
2023-11-19T07:50:12.267Z,97641.52
2023-11-19T07:52:40.418Z,97647.33
2023-11-19T07:55:09.088Z,97639.36
2023-11-19T07:57:37.062Z,97626.63
2023-11-19T08:00:05.395Z,97627.77
2023-11-19T08:02:41.010Z,97623.24
2023-11-19T08:05:12.048Z,97616.77
2023-11-19T08:07:40.315Z,97613.25
2023-11-19T08:10:09.314Z,97611.36
2023-11-19T08:12:37.428Z,97610.77
2023-11-19T08:15:05.664Z,97601.47
2023-11-19T08:17:35.156Z,97595.51
2023-11-19T08:20:03.304Z,97592.16
2023-11-19T08:22:31.282Z,97586.96
2023-11-19T08:24:59.508Z,97580.89
2023-11-19T08:27:27.627Z,97582.95
2023-11-19T08:29:55.567Z,97576.20
2023-11-19T08:32:27.409Z,97571.70
2023-11-19T08:34:55.313Z,97571.71
2023-11-19T08:37:23.972Z,97576.52
2023-11-19T08:39:52.946Z,97585.81
2023-11-19T08:42:20.830Z,97584.64
2023-11-19T08:44:52.174Z,97581.97
2023-11-19T08:47:20.753Z,97572.34
2023-11-19T08:50:03.651Z,97569.96
2023-11-19T08:52:35.352Z,97568.15
2023-11-19T08:55:03.897Z,97565.42
2023-11-19T08:57:35.182Z,97568.11
2023-11-19T09:00:03.463Z,97564.01
2023-11-19T09:02:31.633Z,97553.79
2023-11-19T09:04:59.776Z,97546.48
2023-11-19T09:07:27.824Z,97547.36
2023-11-19T09:09:55.898Z,97548.42
2023-11-19T09:12:47.829Z,97544.28
2023-11-19T09:15:56.510Z,97520.27
2023-11-19T09:18:30.098Z,97502.73
2023-11-19T09:21:04.792Z,97496.02
2023-11-19T09:23:33.117Z,97508.42
2023-11-19T09:26:07.221Z,97513.61
2023-11-19T09:28:35.681Z,97500.68
2023-11-19T09:31:19.972Z,97488.30
2023-11-19T09:34:02.455Z,97492.92
2023-11-19T09:36:30.392Z,97492.26
2023-11-19T09:38:58.512Z,97492.73
2023-11-19T09:41:26.749Z,97490.25
2023-11-19T09:43:54.932Z,97487.73
2023-11-19T09:46:23.287Z,97479.75
2023-11-19T09:48:52.875Z,97475.06
2023-11-19T09:51:20.857Z,97461.02
2023-11-19T09:53:49.014Z,97454.61
2023-11-19T09:56:17.327Z,97451.53
2023-11-19T09:58:45.449Z,97446.47
2023-11-19T10:03:48.113Z,97446.38
2023-11-19T10:06:16.447Z,97434.52
2023-11-19T10:08:45.403Z,97427.34
2023-11-19T10:11:14.405Z,97424.83
2023-11-19T10:13:42.531Z,97418.89
2023-11-19T10:16:11.517Z,97411.40
2023-11-19T10:18:44.461Z,97412.49
2023-11-19T10:21:15.631Z,97407.75
2023-11-19T10:23:50.585Z,97397.71
2023-11-19T10:26:19.284Z,97388.93
2023-11-19T10:28:48.120Z,97379.49
2023-11-19T10:31:16.805Z,97377.89
2023-11-19T10:33:47.856Z,97372.16
2023-11-19T10:36:16.159Z,97373.64
2023-11-19T10:38:54.746Z,97371.71
2023-11-19T10:41:30.053Z,97364.98
2023-11-19T10:44:04.143Z,97357.31
2023-11-19T10:46:42.764Z,97357.50
2023-11-19T10:49:13.248Z,97349.61
2023-11-19T10:51:47.842Z,97345.20
2023-11-19T10:54:19.844Z,97339.92
2023-11-19T10:57:02.212Z,97327.33
2023-11-19T10:59:34.362Z,97322.33
2023-11-19T11:02:10.949Z,97324.90
2023-11-19T11:04:41.195Z,97315.08
2023-11-19T11:07:10.202Z,97307.67
2023-11-19T11:09:39.165Z,97295.77
2023-11-19T11:12:07.534Z,97293.66
2023-11-19T11:14:38.877Z,97291.05
2023-11-19T11:17:07.341Z,97287.79
2023-11-19T11:19:36.277Z,97288.99
2023-11-19T11:22:08.167Z,97288.95
2023-11-19T11:25:00.765Z,97285.38
2023-11-19T11:27:45.089Z,97277.69
2023-11-19T11:30:14.433Z,97275.66
2023-11-19T11:32:52.075Z,97272.64
2023-11-19T11:35:29.821Z,97268.07
2023-11-19T11:38:10.401Z,97265.27
2023-11-19T11:40:38.756Z,97255.32
2023-11-19T11:43:26.658Z,97248.98
2023-11-19T11:45:55.378Z,97244.65
2023-11-19T11:48:28.362Z,97254.55
2023-11-19T11:50:58.167Z,97258.48
2023-11-19T11:53:26.926Z,97252.35
2023-11-19T11:55:55.490Z,97242.71
2023-11-19T11:58:27.651Z,97223.29
2023-11-19T12:00:58.459Z,97225.39
2023-11-19T12:03:28.108Z,97223.61
2023-11-19T12:05:56.681Z,97229.25
2023-11-19T12:08:28.769Z,97221.79
2023-11-19T12:11:08.551Z,97219.33
2023-11-19T12:13:55.720Z,97214.80
2023-11-19T12:16:23.758Z,97217.56
2023-11-19T12:18:51.904Z,97208.33
2023-11-19T12:21:30.271Z,97198.60
2023-11-19T12:24:03.958Z,97195.90
2023-11-19T12:26:36.949Z,97190.44
2023-11-19T12:29:08.364Z,97182.12
2023-11-19T12:31:37.731Z,97180.07
2023-11-19T12:34:08.840Z,97181.48
2023-11-19T12:36:37.105Z,97175.82
2023-11-19T12:39:05.304Z,97171.07
2023-11-19T12:41:33.291Z,97164.98
2023-11-19T12:44:10.419Z,97162.91
2023-11-19T12:46:38.534Z,97168.10
2023-11-19T12:49:16.224Z,97163.63
2023-11-19T12:51:44.434Z,97153.78
2023-11-19T12:54:13.643Z,97153.96
2023-11-19T12:56:42.197Z,97149.98
2023-11-19T12:59:13.496Z,97145.36
2023-11-19T13:01:41.700Z,97146.41
2023-11-19T13:04:19.631Z,97146.08
2023-11-19T13:07:04.902Z,97140.19
2023-11-19T13:09:42.573Z,97133.16
2023-11-19T13:12:22.790Z,97127.09
2023-11-19T13:14:51.000Z,97131.30
2023-11-19T13:17:19.062Z,97131.30
2023-11-19T13:19:49.657Z,97128.91
2023-11-19T13:22:18.094Z,97126.98
2023-11-19T13:24:46.517Z,97120.29
2023-11-19T13:27:15.075Z,97121.54
2023-11-19T13:29:43.509Z,97118.71
2023-11-19T13:32:11.515Z,97121.08
2023-11-19T13:34:39.821Z,97120.15
2023-11-19T13:37:08.597Z,97117.26
2023-11-19T13:39:36.751Z,97117.71
2023-11-19T13:44:40.193Z,97108.91
2023-11-19T13:47:11.560Z,97106.55
2023-11-19T13:49:40.004Z,97099.95
2023-11-19T13:52:08.120Z,97097.43
2023-11-19T13:54:37.688Z,97092.20
2023-11-19T13:57:08.143Z,97089.16
2023-11-19T13:59:40.614Z,97088.65
2023-11-19T14:02:09.082Z,97089.70
2023-11-19T14:04:37.121Z,97086.64
2023-11-19T14:07:06.425Z,97088.98
2023-11-19T14:09:37.009Z,97085.09
2023-11-19T14:12:05.222Z,97087.42
2023-11-19T14:14:33.475Z,97081.06
2023-11-19T14:19:33.839Z,97081.11
2023-11-19T14:22:01.960Z,97078.31
2023-11-19T14:24:30.594Z,97070.43
2023-11-19T14:26:58.687Z,97072.79
2023-11-19T14:29:27.116Z,97067.53
2023-11-19T14:31:55.309Z,97064.17
2023-11-19T14:34:23.755Z,97061.86
2023-11-19T14:36:52.068Z,97055.86
2023-11-19T14:39:20.382Z,97059.73
2023-11-19T14:41:48.497Z,97059.90
2023-11-19T14:44:19.346Z,97056.98
2023-11-19T14:46:50.108Z,97049.38
2023-11-19T14:49:19.465Z,97047.46
2023-11-19T14:51:49.241Z,97041.63
2023-11-19T14:54:17.793Z,97046.35
2023-11-19T14:56:49.058Z,97038.00
2023-11-19T14:59:17.823Z,97033.73
2023-11-19T15:01:56.226Z,97031.94
2023-11-19T15:04:24.439Z,97027.14
2023-11-19T15:06:53.178Z,97029.29
2023-11-19T15:09:21.433Z,97026.32
2023-11-19T15:11:57.024Z,97026.48
2023-11-19T15:14:25.785Z,97022.08
2023-11-19T15:16:57.426Z,97026.91
2023-11-19T15:19:25.435Z,97023.38
2023-11-19T15:21:53.780Z,97021.56
2023-11-19T15:24:22.154Z,97020.76
2023-11-19T15:26:50.329Z,97016.69
2023-11-19T15:29:18.642Z,97017.41
2023-11-19T15:31:54.383Z,97016.57
2023-11-19T15:34:25.107Z,97017.10
2023-11-19T15:36:53.474Z,97018.63
2023-11-19T15:39:22.632Z,97017.09
2023-11-19T15:41:52.232Z,97018.77
2023-11-19T15:44:20.394Z,97020.66
2023-11-19T15:46:48.507Z,97016.95
2023-11-19T15:49:18.389Z,97017.47
2023-11-19T15:51:47.451Z,97010.14
2023-11-19T15:54:15.896Z,97009.76
2023-11-19T15:56:46.094Z,97001.95
2023-11-19T15:59:14.274Z,97002.27
2023-11-19T16:01:42.523Z,97004.65
2023-11-19T16:04:11.004Z,97006.90
2023-11-19T16:06:39.422Z,97012.52
2023-11-19T16:09:07.654Z,97011.84
2023-11-19T16:11:44.333Z,97008.78
2023-11-19T16:14:20.279Z,97001.55
2023-11-19T16:16:48.926Z,97002.74
2023-11-19T16:19:16.930Z,97000.20
2023-11-19T16:21:46.726Z,97005.27
2023-11-19T16:24:16.790Z,97008.12
2023-11-19T16:26:45.217Z,97003.65
2023-11-19T16:29:13.354Z,96997.30
2023-11-19T16:31:41.754Z,96993.55
2023-11-19T16:34:12.872Z,96989.46
2023-11-19T16:36:41.237Z,96984.89
2023-11-19T16:41:44.785Z,96995.98
2023-11-19T16:44:13.561Z,96997.91
2023-11-19T16:46:42.201Z,96995.59
2023-11-19T16:49:10.970Z,96994.79
2023-11-19T16:51:39.630Z,97002.65
2023-11-19T16:54:08.106Z,97002.02
2023-11-19T16:56:39.749Z,97000.34
2023-11-19T16:59:09.306Z,97003.27
2023-11-19T17:01:37.547Z,97009.91
2023-11-19T17:04:09.784Z,97007.79
2023-11-19T17:06:41.221Z,97009.92
2023-11-19T17:09:10.295Z,97009.83
2023-11-19T17:11:38.784Z,97009.38
2023-11-19T17:14:07.119Z,97004.27
2023-11-19T17:16:40.252Z,96993.25
2023-11-19T17:19:10.961Z,96987.95
2023-11-19T17:21:39.293Z,96987.36
2023-11-19T17:24:08.092Z,96988.96
2023-11-19T17:29:07.303Z,96995.80
2023-11-19T17:31:35.651Z,97000.65
2023-11-19T17:34:04.864Z,96996.30
2023-11-19T17:36:33.968Z,97001.98
2023-11-19T17:39:02.603Z,97003.59
2023-11-19T17:41:31.470Z,96997.86
2023-11-19T17:43:59.735Z,96997.16
2023-11-19T17:46:27.737Z,96995.86
2023-11-19T17:48:59.499Z,96996.96
2023-11-19T17:51:27.620Z,96995.90
2023-11-19T17:53:57.738Z,96997.52
2023-11-19T17:56:25.887Z,96996.55
2023-11-19T17:58:54.073Z,97003.21
2023-11-19T18:01:22.777Z,97007.71
2023-11-19T18:03:51.326Z,97006.38
2023-11-19T18:06:19.672Z,97002.27
2023-11-19T18:08:48.098Z,96998.55
2023-11-19T18:11:17.457Z,97001.70
2023-11-19T18:13:46.684Z,97011.52
2023-11-19T18:16:17.158Z,97008.07
2023-11-19T18:18:45.543Z,97011.01
2023-11-19T18:21:14.188Z,97002.02
2023-11-19T18:23:42.182Z,96998.35
2023-11-19T18:26:13.145Z,96997.97
2023-11-19T18:28:41.234Z,96995.70
2023-11-19T18:31:11.111Z,96992.40
2023-11-19T18:33:39.727Z,96992.34
2023-11-19T18:36:09.641Z,96988.02
2023-11-19T18:38:46.304Z,96980.48
2023-11-19T18:41:16.151Z,96975.77
2023-11-19T18:43:44.569Z,96979.95
2023-11-19T18:46:14.159Z,96984.18
2023-11-19T18:48:42.244Z,96982.60
2023-11-19T18:51:10.301Z,96986.67
2023-11-19T18:53:41.531Z,96986.09
2023-11-19T18:56:20.149Z,96983.38
2023-11-19T18:58:53.508Z,96983.42
2023-11-19T19:01:23.315Z,96980.48
2023-11-19T19:03:51.645Z,96979.25
2023-11-19T19:06:29.027Z,96982.36
2023-11-19T19:09:06.365Z,96981.05
2023-11-19T19:11:38.429Z,96985.27
2023-11-19T19:14:06.707Z,96985.16
2023-11-19T19:16:34.910Z,96990.52
2023-11-19T19:19:03.084Z,96987.46
2023-11-19T19:21:40.704Z,96980.71
2023-11-19T19:24:24.325Z,96980.80
2023-11-19T19:26:52.636Z,96977.49
2023-11-19T19:29:23.563Z,96980.98
2023-11-19T19:31:52.556Z,96987.79
2023-11-19T19:34:23.885Z,96994.90
2023-11-19T19:36:56.282Z,96991.52
2023-11-19T19:39:25.251Z,96979.05
2023-11-19T19:41:57.050Z,96983.33
2023-11-19T19:44:30.884Z,96984.20
2023-11-19T19:47:02.163Z,96993.30
2023-11-19T19:49:52.927Z,96991.10
2023-11-19T19:52:40.706Z,96993.70
2023-11-19T19:55:17.506Z,96996.02
2023-11-19T19:57:45.776Z,96995.95
2023-11-19T20:00:18.023Z,97000.02
2023-11-19T20:02:47.573Z,96994.34
2023-11-19T20:05:19.617Z,97000.52
2023-11-19T20:07:52.837Z,97003.94
2023-11-19T20:10:21.219Z,97005.05
2023-11-19T20:12:51.527Z,97006.09
2023-11-19T20:15:33.567Z,97005.27
2023-11-19T20:18:02.241Z,97003.20
2023-11-19T20:20:31.026Z,97007.13
2023-11-19T20:22:59.399Z,97006.12
2023-11-19T20:25:30.258Z,97003.27
2023-11-19T20:28:04.463Z,97007.19
2023-11-19T20:30:32.912Z,97005.20
2023-11-19T20:33:01.598Z,97005.94
2023-11-19T20:35:30.174Z,97014.77
2023-11-19T20:37:58.454Z,97027.67
2023-11-19T20:40:28.930Z,97021.76
2023-11-19T20:42:59.344Z,97016.52
2023-11-19T20:45:27.472Z,97013.92
2023-11-19T20:47:56.619Z,97014.17
2023-11-19T20:50:27.235Z,97019.98
2023-11-19T20:53:12.081Z,97017.73
2023-11-19T20:55:41.376Z,97015.98
2023-11-19T20:58:13.651Z,97010.63
2023-11-19T21:00:43.708Z,97013.88
2023-11-19T21:03:20.248Z,97014.00
2023-11-19T21:05:48.427Z,97011.20
2023-11-19T21:08:16.571Z,97014.98
2023-11-19T21:10:45.359Z,97008.23
2023-11-19T21:13:18.900Z,97008.70
2023-11-19T21:15:54.492Z,97011.84
2023-11-19T21:19:08.947Z,97010.89
2023-11-19T21:22:00.480Z,97013.69
2023-11-19T21:24:33.300Z,97008.20
2023-11-19T21:27:01.438Z,97007.28
2023-11-19T21:29:29.711Z,97007.24
2023-11-19T21:31:58.904Z,97003.89
2023-11-19T21:34:26.966Z,97005.17
2023-11-19T21:36:55.248Z,97000.00
2023-11-19T21:39:23.676Z,97005.48
2023-11-19T21:41:53.289Z,97004.48
2023-11-19T21:44:21.937Z,97001.44
2023-11-19T21:46:50.174Z,97002.17
2023-11-19T21:49:18.427Z,97002.56
2023-11-19T21:51:54.091Z,96999.88
2023-11-19T21:54:22.288Z,97004.96
2023-11-19T21:56:50.480Z,97009.16
2023-11-19T21:59:18.397Z,97008.27
2023-11-19T22:01:46.388Z,97001.03
2023-11-19T22:04:14.578Z,97005.42
2023-11-19T22:06:42.543Z,97006.09
2023-11-19T22:09:10.784Z,97004.46
2023-11-19T22:11:38.911Z,97002.91
2023-11-19T22:14:06.980Z,97000.89
2023-11-19T22:16:35.116Z,97003.27
2023-11-19T22:19:03.061Z,97002.54
2023-11-19T22:21:31.276Z,97003.19
2023-11-19T22:23:59.360Z,97004.54
2023-11-19T22:26:27.412Z,97004.21
2023-11-19T22:28:55.444Z,97001.48
2023-11-19T22:31:23.726Z,96995.77
2023-11-19T22:33:51.797Z,97000.63
2023-11-19T22:36:19.863Z,97000.42
2023-11-19T22:38:47.801Z,96997.84
2023-11-19T22:41:15.795Z,96999.55
2023-11-19T22:43:43.831Z,96997.24
2023-11-19T22:46:11.877Z,96997.45
2023-11-19T22:48:39.945Z,96998.45
2023-11-19T22:51:07.977Z,96993.97
2023-11-19T22:53:35.882Z,96992.38
2023-11-19T22:56:03.959Z,96992.39
2023-11-19T22:58:31.917Z,96991.52
2023-11-19T23:00:59.892Z,96995.92
2023-11-19T23:03:27.995Z,97001.38
2023-11-19T23:05:56.094Z,97000.64
2023-11-19T23:08:23.979Z,97001.48
2023-11-19T23:10:52.075Z,96996.80
2023-11-19T23:13:20.043Z,96996.35
2023-11-19T23:15:48.261Z,96996.79
2023-11-19T23:18:16.285Z,96997.14
2023-11-19T23:20:44.327Z,96991.31
2023-11-19T23:23:14.209Z,96994.19
2023-11-19T23:25:42.515Z,96994.17
2023-11-19T23:28:13.147Z,96993.83
2023-11-19T23:30:44.804Z,96995.49
2023-11-19T23:33:12.755Z,96995.98
2023-11-19T23:35:41.415Z,96989.73
2023-11-19T23:38:09.492Z,96991.26
2023-11-19T23:40:37.628Z,96991.83
2023-11-19T23:43:05.805Z,96993.13
2023-11-19T23:45:34.338Z,96997.33
2023-11-19T23:48:02.441Z,96998.98
2023-11-19T23:50:30.519Z,97000.87
2023-11-19T23:52:58.484Z,97002.58
2023-11-19T23:55:26.441Z,97007.55
2023-11-19T23:57:54.344Z,97004.65
